createdAt,value
2019-05-21T00:02:26.773Z,3.35
2019-05-21T00:04:56.173Z,3.90
2019-05-21T00:07:25.591Z,3.52
2019-05-21T00:09:55.006Z,3.50
2019-05-21T00:12:24.647Z,3.60
2019-05-21T00:14:54.099Z,4.00
2019-05-21T00:17:23.833Z,3.70
2019-05-21T00:19:53.254Z,3.90
2019-05-21T00:22:22.693Z,3.70
2019-05-21T00:24:52.198Z,3.85
2019-05-21T00:27:22.071Z,3.60
2019-05-21T00:30:27.339Z,3.25
2019-05-21T00:33:32.853Z,3.87
2019-05-21T00:36:38.693Z,3.77
2019-05-21T00:39:43.845Z,4.42
2019-05-21T00:42:11.615Z,4.28
2019-05-21T00:44:43.212Z,4.80
2019-05-21T00:47:13.540Z,4.10
2019-05-21T00:49:43.008Z,4.10
2019-05-21T00:52:12.412Z,4.87
2019-05-21T00:54:41.823Z,4.10
2019-05-21T00:57:11.858Z,4.62
2019-05-21T00:59:41.716Z,4.47
2019-05-21T01:02:11.118Z,4.30
2019-05-21T01:04:40.919Z,4.20
2019-05-21T01:07:10.329Z,4.35
2019-05-21T01:09:39.788Z,5.08
2019-05-21T01:12:09.227Z,5.10
2019-05-21T01:14:38.654Z,4.35
2019-05-21T01:17:08.348Z,5.42
2019-05-21T01:19:37.769Z,5.15
2019-05-21T01:22:07.587Z,4.87
2019-05-21T01:24:36.981Z,4.97
2019-05-21T01:27:06.684Z,5.78
2019-05-21T01:29:36.111Z,5.03
2019-05-21T01:32:05.877Z,5.55
2019-05-21T01:34:35.399Z,5.60
2019-05-21T01:37:04.864Z,5.80
2019-05-21T01:39:34.284Z,5.25
2019-05-21T01:42:03.704Z,5.83
2019-05-21T01:44:33.161Z,6.67
2019-05-21T01:47:02.577Z,6.80
2019-05-21T01:49:32.032Z,6.85
2019-05-21T01:52:01.425Z,6.22
2019-05-21T01:54:30.874Z,6.62
2019-05-21T01:57:00.280Z,6.90
2019-05-21T01:59:29.689Z,6.95
2019-05-21T02:01:59.099Z,5.97
2019-05-21T02:04:28.800Z,6.20
2019-05-21T02:06:58.373Z,6.80
2019-05-21T02:09:27.773Z,6.90
2019-05-21T02:11:57.223Z,6.78
2019-05-21T02:14:26.671Z,6.20
2019-05-21T02:16:56.145Z,6.78
2019-05-21T02:19:25.869Z,7.47
2019-05-21T02:21:55.275Z,7.40
2019-05-21T02:24:24.682Z,7.67
2019-05-21T02:26:54.993Z,6.78
2019-05-21T02:29:24.418Z,5.90
2019-05-21T02:31:53.864Z,7.25
2019-05-21T02:34:23.769Z,8.00
2019-05-21T02:36:53.211Z,7.53
2019-05-21T02:39:22.646Z,7.85
2019-05-21T02:41:52.146Z,6.87
2019-05-21T02:44:21.567Z,8.40
2019-05-21T02:46:50.993Z,8.40
2019-05-21T02:49:20.433Z,9.28
2019-05-21T02:51:49.857Z,8.03
2019-05-21T02:54:19.296Z,8.18
2019-05-21T02:56:49.156Z,8.50
2019-05-21T02:59:18.622Z,9.28
2019-05-21T03:01:53.945Z,8.88
2019-05-21T03:04:23.406Z,9.70
2019-05-21T03:06:55.396Z,9.63
2019-05-21T03:09:24.980Z,9.90
2019-05-21T03:11:54.401Z,7.80
2019-05-21T03:14:23.852Z,8.20
2019-05-21T03:16:53.288Z,7.97
2019-05-21T03:19:22.728Z,7.85
2019-05-21T03:21:52.181Z,7.05
2019-05-21T03:24:21.608Z,8.18
2019-05-21T03:26:51.047Z,7.12
2019-05-21T03:29:20.787Z,5.83
2019-05-21T03:31:50.245Z,6.90
2019-05-21T03:34:19.652Z,7.37
2019-05-21T03:36:49.110Z,6.83
2019-05-21T03:39:19.620Z,6.42
2019-05-21T03:41:49.272Z,5.33
2019-05-21T03:44:19.009Z,5.65
2019-05-21T03:46:48.451Z,5.60
2019-05-21T03:49:17.851Z,5.47
2019-05-21T03:51:47.274Z,5.70
2019-05-21T03:54:16.729Z,5.42
2019-05-21T03:56:46.152Z,4.60
2019-05-21T03:59:15.565Z,4.90
2019-05-21T04:01:45.022Z,4.35
2019-05-21T04:04:14.445Z,4.03
2019-05-21T04:06:52.087Z,4.70
2019-05-21T04:09:14.936Z,5.40
2019-05-21T04:11:44.362Z,4.72
2019-05-21T04:14:29.895Z,4.40
2019-05-21T04:17:05.055Z,3.83
2019-05-21T04:19:37.817Z,3.83
2019-05-21T04:22:12.633Z,4.73
2019-05-21T04:24:42.051Z,4.50
2019-05-21T04:27:11.497Z,4.33
2019-05-21T04:29:41.493Z,5.23
2019-05-21T04:32:10.863Z,4.75
2019-05-21T04:34:40.346Z,4.00
2019-05-21T04:37:11.596Z,4.20
2019-05-21T04:39:40.936Z,4.60
2019-05-21T04:42:10.388Z,4.53
2019-05-21T04:44:40.153Z,4.85
2019-05-21T04:47:09.588Z,4.60
2019-05-21T04:49:39.005Z,4.83
2019-05-21T04:52:08.450Z,4.62
2019-05-21T04:54:37.853Z,5.70
2019-05-21T04:57:07.289Z,5.20
2019-05-21T04:59:36.704Z,5.55
2019-05-21T05:02:06.137Z,5.97
2019-05-21T05:04:35.551Z,5.65
2019-05-21T05:07:04.960Z,5.33
2019-05-21T05:09:34.375Z,5.12
2019-05-21T05:12:03.800Z,6.35
2019-05-21T05:14:33.230Z,6.40
2019-05-21T05:17:02.639Z,5.83
2019-05-21T05:19:32.074Z,5.40
2019-05-21T05:22:01.506Z,5.10
2019-05-21T05:24:30.931Z,4.50
2019-05-21T05:27:00.337Z,4.72
2019-05-21T05:29:29.760Z,4.00
2019-05-21T05:31:59.237Z,4.42
2019-05-21T05:34:28.657Z,4.40
2019-05-21T05:36:58.271Z,4.40
2019-05-21T05:39:27.664Z,3.80
2019-05-21T05:41:57.160Z,3.42
2019-05-21T05:44:26.602Z,3.50
2019-05-21T05:46:55.987Z,3.57
2019-05-21T05:49:31.008Z,2.97
2019-05-21T05:52:00.438Z,3.53
2019-05-21T05:54:29.888Z,4.07
2019-05-21T05:56:59.318Z,2.87
2019-05-21T05:59:28.743Z,2.70
2019-05-21T06:01:58.153Z,3.37
2019-05-21T06:04:30.400Z,3.40
2019-05-21T06:06:59.115Z,3.27
2019-05-21T06:09:28.518Z,3.60
2019-05-21T06:11:57.937Z,3.10
2019-05-21T06:14:27.354Z,2.60
2019-05-21T06:16:56.768Z,2.50
2019-05-21T06:19:26.476Z,2.57
2019-05-21T06:21:56.567Z,2.97
2019-05-21T06:24:25.992Z,2.43
2019-05-21T06:26:55.716Z,3.40
2019-05-21T06:29:25.178Z,2.30
2019-05-21T06:31:54.599Z,2.43
2019-05-21T06:34:24.052Z,2.70
2019-05-21T06:36:53.463Z,2.87
2019-05-21T06:39:22.939Z,2.20
2019-05-21T06:41:52.391Z,1.90
2019-05-21T06:44:21.808Z,2.40
2019-05-21T06:46:51.224Z,2.93
2019-05-21T06:49:21.037Z,2.80
2019-05-21T06:51:50.485Z,3.23
2019-05-21T06:54:20.021Z,3.60
2019-05-21T06:56:49.465Z,2.97
2019-05-21T06:59:18.911Z,3.30
2019-05-21T07:01:48.326Z,3.20
2019-05-21T07:04:17.787Z,3.40
2019-05-21T07:06:47.181Z,3.43
2019-05-21T07:09:16.905Z,4.00
2019-05-21T07:11:46.377Z,3.37
2019-05-21T07:14:15.798Z,3.60
2019-05-21T07:16:45.231Z,3.70
2019-05-21T07:19:14.652Z,3.40
2019-05-21T07:21:44.121Z,2.90
2019-05-21T07:24:13.542Z,2.60
2019-05-21T07:26:43.108Z,2.50
2019-05-21T07:29:12.470Z,3.17
2019-05-21T07:31:41.894Z,2.90
2019-05-21T07:34:11.307Z,2.77
2019-05-21T07:36:40.769Z,2.40
2019-05-21T07:39:10.178Z,2.70
2019-05-21T07:41:39.587Z,3.37
2019-05-21T07:44:09.050Z,2.90
2019-05-21T07:46:39.653Z,3.10
2019-05-21T07:49:09.566Z,3.40
2019-05-21T07:51:38.968Z,2.70
2019-05-21T07:54:08.408Z,3.23
2019-05-21T07:56:37.927Z,4.20
2019-05-21T07:59:07.436Z,3.37
2019-05-21T08:01:36.845Z,3.23
2019-05-21T08:04:06.389Z,3.20
2019-05-21T08:06:35.969Z,3.58
2019-05-21T08:09:13.267Z,3.23
2019-05-21T08:11:37.467Z,3.37
2019-05-21T08:14:07.421Z,3.52
2019-05-21T08:16:36.851Z,3.60
2019-05-21T08:19:06.297Z,3.30
2019-05-21T08:21:35.837Z,2.90
2019-05-21T08:24:05.325Z,3.00
2019-05-21T08:26:34.771Z,2.70
2019-05-21T08:29:04.182Z,2.50
2019-05-21T08:31:33.605Z,2.70
2019-05-21T08:34:03.012Z,2.90
2019-05-21T08:36:32.473Z,2.60
2019-05-21T08:39:01.934Z,2.52
2019-05-21T08:41:31.317Z,2.93
2019-05-21T08:44:01.058Z,2.45
2019-05-21T08:46:30.494Z,2.53
2019-05-21T08:48:59.913Z,2.43
2019-05-21T08:51:29.332Z,2.20
2019-05-21T08:53:58.754Z,2.73
2019-05-21T08:56:28.500Z,2.33
2019-05-21T08:58:57.912Z,2.33
2019-05-21T09:01:27.390Z,2.40
2019-05-21T09:03:56.810Z,2.37
2019-05-21T09:06:26.283Z,2.33
2019-05-21T09:08:55.698Z,2.40
2019-05-21T09:11:25.446Z,2.73
2019-05-21T09:13:54.900Z,2.13
2019-05-21T09:16:24.329Z,2.23
2019-05-21T09:18:53.741Z,2.20
2019-05-21T09:21:23.164Z,2.40
2019-05-21T09:23:52.586Z,2.97
2019-05-21T09:26:22.376Z,3.03
2019-05-21T09:28:51.809Z,2.40
2019-05-21T09:31:21.229Z,2.80
2019-05-21T09:33:50.767Z,2.90
2019-05-21T09:36:20.221Z,2.70
2019-05-21T09:38:49.644Z,3.03
2019-05-21T09:41:19.093Z,2.50
2019-05-21T09:43:48.542Z,2.47
2019-05-21T09:46:17.974Z,2.80
2019-05-21T09:48:47.414Z,2.53
2019-05-21T09:51:20.064Z,3.17
2019-05-21T09:53:47.923Z,3.30
2019-05-21T09:56:32.392Z,2.93
2019-05-21T09:59:08.669Z,2.70
2019-05-21T10:01:41.965Z,3.10
2019-05-21T10:04:11.348Z,3.60
2019-05-21T10:06:40.766Z,3.40
2019-05-21T10:09:13.927Z,3.10
2019-05-21T10:11:43.409Z,3.30
2019-05-21T10:14:12.823Z,3.03
2019-05-21T10:16:42.246Z,2.40
2019-05-21T10:19:11.658Z,4.47
2019-05-21T10:21:41.466Z,3.23
2019-05-21T10:24:10.905Z,3.17
2019-05-21T10:26:40.343Z,2.43
2019-05-21T10:29:10.196Z,2.50
2019-05-21T10:31:39.968Z,2.30
2019-05-21T10:34:12.685Z,2.80
2019-05-21T10:36:40.609Z,2.90
2019-05-21T10:39:10.067Z,2.80
2019-05-21T10:41:40.110Z,2.37
2019-05-21T10:44:09.885Z,2.70
2019-05-21T10:46:39.707Z,2.80
2019-05-21T10:49:09.168Z,2.43
2019-05-21T10:51:38.636Z,2.10
2019-05-21T10:54:08.844Z,2.23
2019-05-21T10:56:47.546Z,2.23
2019-05-21T10:59:09.792Z,2.10
2019-05-21T11:01:52.723Z,1.57
2019-05-21T11:04:27.639Z,1.97
2019-05-21T11:06:57.145Z,2.00
2019-05-21T11:09:26.783Z,1.97
2019-05-21T11:11:56.294Z,2.17
2019-05-21T11:14:25.696Z,2.80
2019-05-21T11:16:55.172Z,2.00
2019-05-21T11:19:24.608Z,2.00
2019-05-21T11:21:54.053Z,2.03
2019-05-21T11:24:23.480Z,2.10
2019-05-21T11:26:52.884Z,1.93
2019-05-21T11:29:22.312Z,3.80
2019-05-21T11:31:57.086Z,2.80
2019-05-21T11:34:22.792Z,2.37
2019-05-21T11:36:52.246Z,2.80
2019-05-21T11:39:21.822Z,2.33
2019-05-21T11:41:51.760Z,2.10
2019-05-21T11:44:21.379Z,2.33
2019-05-21T11:46:50.784Z,2.20
2019-05-21T11:49:20.255Z,2.10
2019-05-21T11:51:49.679Z,2.20
2019-05-21T11:54:19.454Z,2.20
2019-05-21T11:56:48.852Z,1.77
2019-05-21T11:59:18.295Z,1.90
2019-05-21T12:01:47.718Z,1.70
2019-05-21T12:04:17.164Z,2.20
2019-05-21T12:06:46.577Z,1.70
2019-05-21T12:09:16.022Z,1.70
2019-05-21T12:11:45.826Z,1.60
2019-05-21T12:14:15.218Z,1.63
2019-05-21T12:16:44.653Z,1.70
2019-05-21T12:19:14.121Z,1.63
2019-05-21T12:21:43.538Z,1.60
2019-05-21T12:24:13.380Z,1.67
2019-05-21T12:26:42.813Z,1.53
2019-05-21T12:29:12.220Z,1.60
2019-05-21T12:31:41.672Z,1.40
2019-05-21T12:34:11.087Z,1.67
2019-05-21T12:36:40.498Z,1.50
2019-05-21T12:39:14.199Z,2.20
2019-05-21T12:41:40.993Z,1.60
2019-05-21T12:44:10.381Z,1.57
2019-05-21T12:46:39.827Z,1.73
2019-05-21T12:49:09.240Z,1.60
2019-05-21T12:51:38.713Z,1.80
2019-05-21T12:54:08.110Z,1.80
2019-05-21T12:56:40.763Z,1.60
2019-05-21T12:59:08.607Z,1.80
2019-05-21T13:01:38.068Z,2.17
2019-05-21T13:04:07.470Z,1.70
2019-05-21T13:06:36.897Z,1.73
2019-05-21T13:09:08.584Z,1.80
2019-05-21T13:11:38.057Z,1.60
2019-05-21T13:14:07.482Z,1.40
2019-05-21T13:16:36.870Z,1.47
2019-05-21T13:19:11.015Z,1.60
2019-05-21T13:21:37.835Z,1.60
2019-05-21T13:24:07.270Z,1.60
2019-05-21T13:26:36.783Z,1.30
2019-05-21T13:29:06.317Z,1.30
2019-05-21T13:31:35.723Z,1.83
2019-05-21T13:34:05.122Z,1.60
2019-05-21T13:36:34.792Z,1.73
2019-05-21T13:39:05.878Z,1.93
2019-05-21T13:41:35.527Z,2.37
2019-05-21T13:44:04.994Z,1.50
2019-05-21T13:46:35.758Z,1.37
2019-05-21T13:49:05.517Z,1.70
2019-05-21T13:51:34.914Z,1.30
2019-05-21T13:54:04.617Z,1.80
2019-05-21T13:56:34.549Z,1.30
2019-05-21T13:59:04.330Z,1.30
2019-05-21T14:01:40.838Z,1.70
2019-05-21T14:04:05.746Z,2.30
2019-05-21T14:06:35.481Z,1.80
2019-05-21T14:09:06.371Z,2.03
2019-05-21T14:11:36.038Z,1.93
2019-05-21T14:14:05.486Z,1.90
2019-05-21T14:16:35.071Z,1.70
2019-05-21T14:19:04.556Z,1.63
2019-05-21T14:21:34.446Z,1.67
2019-05-21T14:24:03.859Z,1.50
2019-05-21T14:26:33.340Z,1.70
2019-05-21T14:29:02.823Z,1.90
2019-05-21T14:31:32.370Z,1.60
2019-05-21T14:34:01.782Z,2.13
2019-05-21T14:36:31.224Z,1.97
2019-05-21T14:39:00.693Z,1.70
2019-05-21T14:41:30.128Z,2.03
2019-05-21T14:43:59.537Z,2.30
2019-05-21T14:46:29.125Z,2.13
2019-05-21T14:49:17.621Z,2.20
2019-05-21T14:51:47.031Z,2.40
2019-05-21T14:54:26.005Z,2.20
2019-05-21T14:56:48.072Z,2.30
2019-05-21T14:59:17.742Z,1.80
2019-05-21T15:01:47.264Z,1.80
2019-05-21T15:04:17.167Z,1.60
2019-05-21T15:06:46.701Z,1.80
2019-05-21T15:09:16.273Z,1.60
2019-05-21T15:11:45.813Z,2.23
2019-05-21T15:14:15.258Z,2.07
2019-05-21T15:16:45.154Z,1.60
2019-05-21T15:19:14.668Z,1.50
2019-05-21T15:21:48.262Z,1.67
2019-05-21T15:24:17.738Z,1.70
2019-05-21T15:26:47.196Z,1.50
2019-05-21T15:29:16.631Z,2.00
2019-05-21T15:31:46.038Z,2.37
2019-05-21T15:34:15.936Z,1.60
2019-05-21T15:36:45.451Z,1.83
2019-05-21T15:39:14.873Z,2.40
2019-05-21T15:41:44.310Z,2.30
2019-05-21T15:44:13.983Z,2.00
2019-05-21T15:46:49.882Z,2.20
2019-05-21T15:49:14.995Z,2.30
2019-05-21T15:51:44.430Z,2.20
2019-05-21T15:54:14.164Z,2.30
2019-05-21T15:56:43.653Z,2.57
2019-05-21T15:59:13.087Z,2.63
2019-05-21T16:01:42.562Z,2.57
2019-05-21T16:04:16.164Z,2.17
2019-05-21T16:06:43.432Z,2.20
2019-05-21T16:09:13.093Z,2.50
2019-05-21T16:11:42.703Z,2.20
2019-05-21T16:14:12.137Z,2.03
2019-05-21T16:16:41.577Z,2.77
2019-05-21T16:19:11.082Z,1.97
2019-05-21T16:21:40.479Z,2.37
2019-05-21T16:24:09.917Z,2.00
2019-05-21T16:26:39.681Z,1.90
2019-05-21T16:29:09.140Z,2.17
2019-05-21T16:31:38.528Z,1.70
2019-05-21T16:34:07.965Z,1.90
2019-05-21T16:36:37.413Z,2.03
2019-05-21T16:39:08.164Z,2.10
2019-05-21T16:41:44.875Z,2.20
2019-05-21T16:44:08.713Z,2.40
2019-05-21T16:46:38.213Z,2.20
2019-05-21T16:49:07.584Z,2.30
2019-05-21T16:51:36.980Z,2.33
2019-05-21T16:54:06.782Z,2.58
2019-05-21T16:56:36.205Z,1.80
2019-05-21T16:59:10.309Z,4.00
2019-05-21T17:01:40.424Z,5.87
2019-05-21T17:04:10.234Z,3.65
2019-05-21T17:06:41.262Z,3.70
2019-05-21T17:09:13.362Z,1.90
2019-05-21T17:11:57.576Z,1.75
2019-05-21T17:14:15.049Z,1.67
2019-05-21T17:16:44.780Z,1.77
2019-05-21T17:19:14.538Z,1.75
2019-05-21T17:21:43.973Z,2.27
2019-05-21T17:24:13.470Z,2.50
2019-05-21T17:26:43.680Z,2.75
2019-05-21T17:29:13.488Z,2.00
2019-05-21T17:31:43.838Z,2.42
2019-05-21T17:34:13.317Z,2.12
2019-05-21T17:36:43.044Z,2.45
2019-05-21T17:39:12.557Z,2.40
2019-05-21T17:41:42.258Z,2.40
2019-05-21T17:44:11.794Z,2.52
2019-05-21T17:46:41.262Z,2.60
2019-05-21T17:49:10.660Z,2.80
2019-05-21T17:51:40.374Z,2.83
2019-05-21T17:54:09.809Z,3.45
2019-05-21T17:56:39.595Z,2.83
2019-05-21T17:59:09.005Z,3.20
2019-05-21T18:01:38.638Z,3.00
2019-05-21T18:04:08.530Z,3.20
2019-05-21T18:06:39.074Z,2.70
2019-05-21T18:09:12.534Z,3.15
2019-05-21T18:11:42.990Z,3.15
2019-05-21T18:14:12.450Z,3.05
2019-05-21T18:16:42.248Z,2.87
2019-05-21T18:19:13.142Z,3.08
2019-05-21T18:21:43.204Z,2.85
2019-05-21T18:24:12.647Z,2.67
2019-05-21T18:26:42.151Z,3.05
2019-05-21T18:29:12.313Z,2.83
2019-05-21T18:31:41.870Z,3.30
2019-05-21T18:34:12.421Z,2.60
2019-05-21T18:36:42.205Z,2.95
2019-05-21T18:39:11.990Z,2.98
2019-05-21T18:41:41.447Z,2.62
2019-05-21T18:44:12.126Z,3.10
2019-05-21T18:46:44.446Z,3.25
2019-05-21T18:49:13.985Z,3.72
2019-05-21T18:51:43.762Z,3.02
2019-05-21T18:54:13.569Z,3.15
2019-05-21T18:56:43.610Z,3.27
2019-05-21T18:59:13.086Z,3.90
2019-05-21T19:01:42.506Z,4.03
2019-05-21T19:04:12.645Z,3.55
2019-05-21T19:06:42.094Z,4.25
2019-05-21T19:09:11.983Z,3.90
2019-05-21T19:11:41.761Z,4.87
2019-05-21T19:14:12.034Z,4.17
2019-05-21T19:16:41.838Z,4.28
2019-05-21T19:19:11.254Z,3.70
2019-05-21T19:21:40.731Z,4.05
2019-05-21T19:24:10.482Z,3.80
2019-05-21T19:26:43.922Z,4.25
2019-05-21T19:29:12.415Z,3.83
2019-05-21T19:31:42.215Z,4.05
2019-05-21T19:34:12.425Z,3.70
2019-05-21T19:36:42.129Z,4.15
2019-05-21T19:39:11.630Z,4.45
2019-05-21T19:41:41.234Z,4.17
2019-05-21T19:44:10.652Z,4.67
2019-05-21T19:46:40.369Z,3.58
2019-05-21T19:49:09.841Z,4.40
2019-05-21T19:51:39.577Z,3.95
2019-05-21T19:54:09.011Z,4.50
2019-05-21T19:56:38.561Z,4.53
2019-05-21T19:59:07.954Z,4.35
2019-05-21T20:01:37.898Z,5.47
2019-05-21T20:04:09.228Z,4.87
2019-05-21T20:06:39.213Z,4.42
2019-05-21T20:09:14.587Z,4.20
2019-05-21T20:11:44.864Z,4.33
2019-05-21T20:14:14.516Z,4.45
2019-05-21T20:16:44.232Z,5.08
2019-05-21T20:19:15.303Z,4.65
2019-05-21T20:21:45.405Z,4.45
2019-05-21T20:24:14.753Z,4.65
2019-05-21T20:26:44.354Z,4.85
2019-05-21T20:29:13.896Z,5.28
2019-05-21T20:31:44.250Z,4.55
2019-05-21T20:34:13.737Z,5.00
2019-05-21T20:36:43.506Z,4.37
2019-05-21T20:39:15.334Z,4.53
2019-05-21T20:41:45.447Z,5.25
2019-05-21T20:44:16.104Z,5.05
2019-05-21T20:46:45.538Z,4.90
2019-05-21T20:49:16.061Z,5.22
2019-05-21T20:51:45.830Z,5.10
2019-05-21T20:54:17.193Z,4.72
2019-05-21T20:56:46.626Z,4.83
2019-05-21T20:59:16.051Z,5.25
2019-05-21T21:01:45.587Z,4.90
2019-05-21T21:04:15.142Z,5.55
2019-05-21T21:06:44.678Z,6.00
2019-05-21T21:09:14.373Z,6.10
2019-05-21T21:11:45.920Z,6.72
2019-05-21T21:14:18.303Z,6.35
2019-05-21T21:16:47.661Z,7.03
2019-05-21T21:19:17.160Z,7.67
2019-05-21T21:21:46.970Z,7.95
2019-05-21T21:24:16.501Z,6.60
2019-05-21T21:26:46.213Z,7.33
2019-05-21T21:29:16.359Z,7.55
2019-05-21T21:31:45.793Z,8.15
2019-05-21T21:34:16.192Z,8.95
2019-05-21T21:36:45.711Z,9.00
2019-05-21T21:39:15.094Z,9.95
2019-05-21T21:41:45.073Z,13.78
2019-05-21T21:44:14.562Z,9.25
2019-05-21T21:46:44.001Z,8.40
2019-05-21T21:49:15.602Z,9.65
2019-05-21T21:51:45.042Z,9.20
2019-05-21T21:54:14.606Z,9.00
2019-05-21T21:56:44.129Z,8.75
2019-05-21T21:59:13.578Z,8.90
2019-05-21T22:01:54.377Z,8.80
2019-05-21T22:04:30.303Z,9.00
2019-05-21T22:07:00.540Z,8.58
2019-05-21T22:09:31.163Z,9.73
2019-05-21T22:12:02.444Z,11.10
2019-05-21T22:14:49.091Z,10.00
2019-05-21T22:17:05.802Z,10.88
2019-05-21T22:19:36.071Z,11.57
2019-05-21T22:22:07.313Z,11.08
2019-05-21T22:24:36.841Z,13.10
2019-05-21T22:27:06.507Z,13.00
2019-05-21T22:29:37.275Z,15.18
2019-05-21T22:32:06.802Z,14.83
2019-05-21T22:34:36.334Z,15.28
2019-05-21T22:37:07.975Z,15.23
2019-05-21T22:39:37.800Z,17.07
2019-05-21T22:42:07.854Z,14.13
2019-05-21T22:44:37.728Z,13.58
2019-05-21T22:47:07.577Z,12.68
2019-05-21T22:49:37.008Z,12.15
2019-05-21T22:52:06.879Z,11.55
2019-05-21T22:54:36.334Z,8.90
2019-05-21T22:57:05.863Z,7.95
2019-05-21T22:59:35.302Z,7.00
2019-05-21T23:02:06.943Z,6.22
2019-05-21T23:04:36.573Z,6.10
2019-05-21T23:07:06.802Z,5.60
2019-05-21T23:09:36.360Z,5.20
2019-05-21T23:12:06.994Z,4.75
2019-05-21T23:14:36.829Z,5.33
2019-05-21T23:17:08.816Z,5.35
2019-05-21T23:19:39.134Z,5.28
2019-05-21T23:22:09.711Z,6.50
2019-05-21T23:24:39.545Z,6.72
2019-05-21T23:27:11.098Z,6.72
2019-05-21T23:29:41.120Z,7.55
2019-05-21T23:32:11.552Z,8.55
2019-05-21T23:34:41.032Z,9.90
2019-05-21T23:37:15.557Z,9.35
2019-05-21T23:39:45.967Z,10.28
2019-05-21T23:42:28.590Z,12.93
2019-05-21T23:44:47.241Z,14.40
2019-05-21T23:47:18.389Z,13.72
2019-05-21T23:49:47.796Z,15.70
2019-05-21T23:52:17.323Z,17.00
2019-05-21T23:54:46.837Z,16.52
2019-05-21T23:57:20.666Z,17.25
2019-05-21T23:59:51.297Z,18.45
